createdAt,value
2023-01-09T00:00:09.720Z,10.20
2023-01-09T00:05:18.967Z,10.20
2023-01-09T00:07:51.642Z,10.30
2023-01-09T00:10:23.566Z,10.40
2023-01-09T00:12:55.848Z,10.50
2023-01-09T00:15:27.820Z,10.40
2023-01-09T00:18:00.598Z,10.40
2023-01-09T00:23:05.154Z,10.50
2023-01-09T00:30:45.975Z,10.30
2023-01-09T00:33:19.714Z,10.20
2023-01-09T00:40:58.412Z,9.90
2023-01-09T00:43:51.015Z,9.90
2023-01-09T00:46:29.739Z,10.00
2023-01-09T00:49:04.903Z,9.90
2023-01-09T00:51:38.096Z,9.90
2023-01-09T00:54:16.886Z,10.00
2023-01-09T00:56:49.981Z,9.90
2023-01-09T00:59:23.773Z,9.80
2023-01-09T01:01:55.823Z,9.70
2023-01-09T01:04:47.061Z,9.80
2023-01-09T01:07:37.301Z,9.70
2023-01-09T01:10:17.788Z,9.60
2023-01-09T01:12:51.716Z,9.60
2023-01-09T01:15:24.181Z,9.60
2023-01-09T01:20:29.750Z,9.60
2023-01-09T01:23:01.731Z,9.60
2023-01-09T01:25:43.603Z,9.60
2023-01-09T01:28:16.458Z,9.50
2023-01-09T01:30:48.400Z,9.50
2023-01-09T01:33:23.561Z,9.50
2023-01-09T01:36:08.654Z,9.70
2023-01-09T01:38:40.973Z,9.70
2023-01-09T01:43:55.370Z,11.20
2023-01-09T01:46:29.902Z,9.60
2023-01-09T01:49:09.922Z,9.60
2023-01-09T01:51:46.943Z,9.70
2023-01-09T01:54:26.864Z,9.70
2023-01-09T01:57:03.385Z,9.70
2023-01-09T01:59:50.618Z,9.70
2023-01-09T02:02:28.212Z,9.70
2023-01-09T02:05:02.186Z,9.70
2023-01-09T02:07:34.981Z,9.60
2023-01-09T02:10:08.699Z,9.60
2023-01-09T02:12:41.089Z,9.60
2023-01-09T02:15:15.333Z,9.60
2023-01-09T02:18:19.185Z,9.50
2023-01-09T02:21:01.222Z,9.60
2023-01-09T02:24:08.309Z,9.60
2023-01-09T02:27:02.486Z,9.50
2023-01-09T02:30:20.812Z,9.50
2023-01-09T02:33:09.873Z,9.50
2023-01-09T02:36:16.575Z,9.50
2023-01-09T02:39:03.429Z,9.40
2023-01-09T02:41:46.449Z,9.40
2023-01-09T02:47:17.772Z,9.30
2023-01-09T02:50:03.180Z,9.30
2023-01-09T02:53:03.040Z,9.30
2023-01-09T02:58:39.378Z,9.20
2023-01-09T03:01:44.782Z,9.20
2023-01-09T03:04:32.881Z,9.20
2023-01-09T03:07:35.093Z,9.20
2023-01-09T03:10:40.060Z,9.10
2023-01-09T03:13:16.861Z,9.00
2023-01-09T03:15:51.614Z,9.10
2023-01-09T03:18:28.196Z,9.00
2023-01-09T03:23:53.643Z,9.00
2023-01-09T03:29:20.028Z,8.80
2023-01-09T03:31:52.384Z,8.80
2023-01-09T03:34:24.279Z,8.80
2023-01-09T03:36:57.014Z,8.80
2023-01-09T03:39:28.985Z,8.80
2023-01-09T03:42:04.977Z,8.80
2023-01-09T03:47:09.945Z,10.20
2023-01-09T03:49:41.860Z,8.60
2023-01-09T03:52:14.665Z,8.60
2023-01-09T03:54:46.570Z,8.50
2023-01-09T03:57:19.306Z,8.40
2023-01-09T03:59:51.640Z,8.40
2023-01-09T04:04:56.795Z,8.30
2023-01-09T04:07:29.119Z,8.20
2023-01-09T04:10:01.003Z,8.20
2023-01-09T04:15:07.288Z,8.10
2023-01-09T04:20:12.803Z,8.00
2023-01-09T04:25:18.027Z,7.90
2023-01-09T04:27:50.763Z,7.90
2023-01-09T04:32:55.452Z,7.80
2023-01-09T04:35:28.230Z,7.80
2023-01-09T04:43:07.065Z,7.70
2023-01-09T04:45:39.041Z,7.70
2023-01-09T04:50:44.697Z,7.60
2023-01-09T04:53:16.595Z,7.50
2023-01-09T04:55:49.337Z,7.60
2023-01-09T04:58:21.278Z,7.50
2023-01-09T05:03:26.662Z,7.40
2023-01-09T05:05:59.424Z,7.40
2023-01-09T05:11:05.002Z,7.40
2023-01-09T05:13:36.968Z,7.40
2023-01-09T05:16:10.113Z,7.30
2023-01-09T05:21:14.925Z,7.20
2023-01-09T05:26:24.651Z,7.20
2023-01-09T05:28:57.410Z,7.30
2023-01-09T05:34:02.435Z,7.40
2023-01-09T05:36:36.294Z,7.40
2023-01-09T05:39:08.229Z,7.30
2023-01-09T05:41:40.976Z,7.40
2023-01-09T05:44:13.062Z,7.40
2023-01-09T05:46:46.374Z,7.40
2023-01-09T05:49:18.564Z,7.30
2023-01-09T05:51:51.283Z,7.30
2023-01-09T05:54:23.151Z,7.30
2023-01-09T05:59:28.209Z,7.30
2023-01-09T06:07:07.019Z,7.30
2023-01-09T06:09:39.030Z,7.30
2023-01-09T06:12:12.060Z,7.30
2023-01-09T06:14:44.417Z,7.30
2023-01-09T06:17:16.550Z,7.30
2023-01-09T06:24:54.925Z,7.40
2023-01-09T06:27:26.887Z,7.40
2023-01-09T06:38:01.842Z,7.50
2023-01-09T06:40:33.734Z,7.50
2023-01-09T06:45:38.909Z,7.60
2023-01-09T06:48:12.420Z,7.60
2023-01-09T06:53:18.623Z,7.60
2023-01-09T06:58:25.085Z,7.70
2023-01-09T07:00:59.088Z,7.70
2023-01-09T07:03:33.684Z,7.70
2023-01-09T07:06:06.196Z,7.70
2023-01-09T07:08:38.975Z,7.70
2023-01-09T07:16:17.452Z,7.80
2023-01-09T07:18:49.700Z,7.80
2023-01-09T07:21:24.723Z,8.00
2023-01-09T07:31:35.329Z,7.90
2023-01-09T07:34:07.284Z,8.00
2023-01-09T07:36:40.050Z,8.00
2023-01-09T07:41:46.625Z,8.00
2023-01-09T07:44:20.247Z,8.00
2023-01-09T07:46:53.005Z,8.00
2023-01-09T07:54:32.579Z,7.90
2023-01-09T07:57:05.068Z,8.00
2023-01-09T07:59:36.979Z,8.00
2023-01-09T08:02:11.030Z,8.00
2023-01-09T08:04:43.056Z,8.00
2023-01-09T08:07:15.959Z,8.00
2023-01-09T08:17:27.227Z,8.10
2023-01-09T08:22:32.716Z,8.10
2023-01-09T08:25:05.558Z,8.00
2023-01-09T08:27:42.389Z,8.00
2023-01-09T08:30:15.310Z,7.90
2023-01-09T08:32:53.239Z,8.00
2023-01-09T08:35:25.199Z,8.00
2023-01-09T08:37:58.132Z,8.00
2023-01-09T08:40:30.108Z,8.00
2023-01-09T08:43:21.491Z,8.00
2023-01-09T08:48:45.175Z,8.10
2023-01-09T08:51:17.385Z,8.20
2023-01-09T08:56:23.078Z,8.20
2023-01-09T08:58:55.745Z,8.30
2023-01-09T09:06:34.541Z,8.30
2023-01-09T09:09:07.677Z,8.40
2023-01-09T09:11:39.745Z,8.40
2023-01-09T09:14:30.866Z,8.40
2023-01-09T09:17:03.075Z,8.40
2023-01-09T09:22:08.210Z,8.40
2023-01-09T09:29:48.116Z,8.60
2023-01-09T09:32:20.044Z,8.60
2023-01-09T09:37:28.322Z,8.60
2023-01-09T09:40:09.865Z,8.60
2023-01-09T09:43:38.701Z,8.60
2023-01-09T09:46:36.021Z,8.60
2023-01-09T09:49:28.961Z,8.70
2023-01-09T09:52:34.788Z,8.60
2023-01-09T09:55:24.437Z,8.80
2023-01-09T09:57:59.333Z,8.80
2023-01-09T10:00:31.375Z,8.80
2023-01-09T10:03:54.308Z,8.80
2023-01-09T10:06:43.035Z,8.80
2023-01-09T10:09:51.024Z,8.80
2023-01-09T10:12:39.218Z,8.80
2023-01-09T10:15:38.518Z,8.90
2023-01-09T10:18:21.747Z,9.00
2023-01-09T10:20:59.296Z,8.90
2023-01-09T10:23:49.711Z,8.90
2023-01-09T10:26:37.366Z,9.00
2023-01-09T10:29:41.757Z,8.90
2023-01-09T10:33:01.789Z,8.80
2023-01-09T10:35:55.067Z,8.80
2023-01-09T10:38:35.193Z,8.70
2023-01-09T10:41:14.231Z,8.80
2023-01-09T10:44:16.009Z,8.80
2023-01-09T10:46:56.811Z,8.60
2023-01-09T10:52:18.088Z,8.70
2023-01-09T10:55:05.417Z,8.40
2023-01-09T10:57:44.277Z,8.10
2023-01-09T11:00:23.684Z,8.00
2023-01-09T11:02:56.683Z,7.70
2023-01-09T11:05:34.020Z,7.50
2023-01-09T11:08:08.913Z,7.40
2023-01-09T11:10:53.833Z,7.40
2023-01-09T11:13:36.952Z,7.40
2023-01-09T11:16:23.730Z,7.50
2023-01-09T11:19:01.230Z,7.50
2023-01-09T11:21:36.456Z,7.60
2023-01-09T11:24:27.871Z,7.70
2023-01-09T11:27:27.923Z,7.60
2023-01-09T11:30:24.002Z,7.70
2023-01-09T11:32:58.506Z,7.60
2023-01-09T11:35:34.644Z,7.60
2023-01-09T11:38:16.034Z,7.60
2023-01-09T11:40:58.968Z,7.60
2023-01-09T11:43:38.543Z,7.60
2023-01-09T11:46:30.566Z,7.70
2023-01-09T11:49:23.645Z,7.70
2023-01-09T11:52:22.551Z,7.60
2023-01-09T11:55:05.797Z,7.80
2023-01-09T12:00:38.924Z,7.90
2023-01-09T12:03:50.435Z,8.00
2023-01-09T12:06:58.252Z,8.10
2023-01-09T12:09:53.375Z,8.00
2023-01-09T12:12:57.672Z,8.10
2023-01-09T12:15:50.742Z,8.10
2023-01-09T12:18:48.216Z,8.10
2023-01-09T12:22:12.570Z,8.10
2023-01-09T12:25:08.509Z,8.10
2023-01-09T12:28:26.076Z,8.10
2023-01-09T12:31:43.607Z,8.10
2023-01-09T12:34:40.630Z,8.20
2023-01-09T12:37:54.661Z,8.30
2023-01-09T12:40:54.626Z,8.40
2023-01-09T12:44:02.734Z,8.50
2023-01-09T12:46:53.551Z,8.50
2023-01-09T12:49:46.615Z,8.40
2023-01-09T12:52:32.487Z,8.20
2023-01-09T12:55:23.261Z,8.30
2023-01-09T12:58:00.881Z,8.40
2023-01-09T13:00:41.265Z,8.50
2023-01-09T13:03:35.190Z,8.60
2023-01-09T13:06:14.923Z,8.60
2023-01-09T13:09:11.998Z,8.70
2023-01-09T13:11:49.149Z,8.70
2023-01-09T13:14:59.752Z,8.60
2023-01-09T13:17:46.085Z,8.50
2023-01-09T13:20:32.851Z,8.50
2023-01-09T13:23:07.029Z,8.60
2023-01-09T13:25:48.027Z,8.60
2023-01-09T13:28:36.331Z,8.50
2023-01-09T13:31:46.594Z,8.20
2023-01-09T13:34:24.464Z,8.00
2023-01-09T13:36:57.431Z,7.90
2023-01-09T13:39:33.692Z,7.80
2023-01-09T13:42:39.645Z,7.80
2023-01-09T13:45:17.528Z,7.80
2023-01-09T13:48:08.796Z,7.50
2023-01-09T13:50:46.046Z,7.20
2023-01-09T13:55:59.899Z,7.00
2023-01-09T13:58:57.073Z,7.00
2023-01-09T14:01:35.609Z,7.10
2023-01-09T14:04:14.999Z,7.10
2023-01-09T14:07:16.883Z,7.20
2023-01-09T14:09:58.615Z,7.20
2023-01-09T14:12:40.796Z,7.20
2023-01-09T14:15:41.067Z,7.30
2023-01-09T14:18:30.281Z,7.30
2023-01-09T14:21:11.666Z,7.30
2023-01-09T14:24:04.358Z,7.30
2023-01-09T14:26:58.866Z,7.10
2023-01-09T14:29:45.189Z,7.00
2023-01-09T14:32:23.139Z,7.00
2023-01-09T14:40:06.244Z,7.00
2023-01-09T14:42:42.091Z,7.10
2023-01-09T14:45:25.187Z,7.10
2023-01-09T14:48:07.551Z,7.10
2023-01-09T14:50:55.187Z,7.10
2023-01-09T14:53:31.956Z,7.10
2023-01-09T14:56:07.371Z,7.10
2023-01-09T15:01:27.217Z,7.10
2023-01-09T15:04:17.048Z,7.00
2023-01-09T15:09:31.315Z,6.70
2023-01-09T15:12:09.509Z,6.50
2023-01-09T15:14:46.092Z,6.40
2023-01-09T15:17:24.075Z,6.40
2023-01-09T15:19:58.776Z,6.30
2023-01-09T15:22:33.801Z,6.30
2023-01-09T15:25:40.766Z,6.40
2023-01-09T15:28:33.829Z,6.40
2023-01-09T15:31:13.362Z,6.40
2023-01-09T15:33:47.702Z,6.30
2023-01-09T15:36:26.593Z,6.40
2023-01-09T15:39:07.195Z,6.30
2023-01-09T15:44:36.184Z,6.30
2023-01-09T15:47:16.026Z,6.20
2023-01-09T15:52:22.913Z,6.30
2023-01-09T15:54:55.697Z,6.20
2023-01-09T15:57:30.878Z,6.20
2023-01-09T16:00:42.121Z,6.10
2023-01-09T16:03:20.304Z,6.30
2023-01-09T16:05:58.239Z,6.30
2023-01-09T16:08:38.262Z,6.30
2023-01-09T16:11:31.241Z,6.30
2023-01-09T16:14:19.047Z,6.30
2023-01-09T16:16:52.680Z,6.20
2023-01-09T16:19:47.375Z,6.30
2023-01-09T16:22:29.139Z,6.30
2023-01-09T16:25:22.003Z,6.30
2023-01-09T16:28:21.898Z,6.40
2023-01-09T16:31:08.329Z,6.40
2023-01-09T16:33:46.837Z,6.40
2023-01-09T16:36:19.539Z,6.50
2023-01-09T16:38:53.504Z,6.40
2023-01-09T16:41:44.655Z,6.40
2023-01-09T16:44:19.573Z,6.50
2023-01-09T16:49:27.397Z,6.50
2023-01-09T16:52:02.959Z,6.50
2023-01-09T16:57:11.839Z,6.50
2023-01-09T16:59:44.597Z,6.50
2023-01-09T17:02:20.016Z,6.50
2023-01-09T17:04:55.470Z,6.50
2023-01-09T17:10:05.102Z,6.40
2023-01-09T17:12:37.056Z,6.40
2023-01-09T17:17:42.609Z,6.40
2023-01-09T17:20:19.968Z,6.40
2023-01-09T17:22:51.960Z,6.40
2023-01-09T17:25:42.749Z,6.50
2023-01-09T17:28:34.591Z,6.50
2023-01-09T17:31:11.395Z,6.50
2023-01-09T17:33:44.030Z,6.50
2023-01-09T17:36:32.433Z,6.40
2023-01-09T17:39:05.236Z,6.40
2023-01-09T17:44:12.028Z,6.40
2023-01-09T17:46:45.002Z,6.40
2023-01-09T17:49:22.060Z,6.40
2023-01-09T17:51:54.232Z,6.40
2023-01-09T17:59:32.403Z,6.30
2023-01-09T18:02:04.415Z,6.40
2023-01-09T18:04:39.454Z,6.40
2023-01-09T18:07:20.759Z,6.30
2023-01-09T18:09:53.824Z,6.40
2023-01-09T18:12:25.749Z,6.30
2023-01-09T18:14:58.439Z,6.30
2023-01-09T18:17:30.385Z,6.30
2023-01-09T18:20:02.951Z,6.30
2023-01-09T18:22:35.235Z,6.30
2023-01-09T18:25:08.493Z,6.30
2023-01-09T18:30:13.471Z,6.30
2023-01-09T18:37:50.737Z,6.40
2023-01-09T18:40:23.299Z,6.40
2023-01-09T18:42:56.020Z,6.40
2023-01-09T18:45:28.292Z,6.40
2023-01-09T18:48:00.647Z,6.40
2023-01-09T18:50:32.572Z,6.40
2023-01-09T18:53:05.193Z,6.40
2023-01-09T18:58:19.198Z,6.50
2023-01-09T19:00:51.976Z,6.50
2023-01-09T19:03:24.275Z,6.50
2023-01-09T19:06:03.780Z,6.40
2023-01-09T19:08:36.935Z,6.50
2023-01-09T19:13:42.030Z,6.50
2023-01-09T19:16:14.504Z,6.50
2023-01-09T19:21:22.896Z,6.50
2023-01-09T19:23:54.983Z,6.50
2023-01-09T19:26:48.749Z,6.50
2023-01-09T19:29:20.705Z,6.50
2023-01-09T19:31:53.629Z,6.50
2023-01-09T19:34:26.417Z,6.50
2023-01-09T19:39:32.371Z,6.50
2023-01-09T19:42:04.836Z,6.50
2023-01-09T19:44:36.762Z,6.50
2023-01-09T19:47:09.056Z,6.40
2023-01-09T19:49:42.018Z,6.50
2023-01-09T19:54:48.311Z,6.50
2023-01-09T19:57:21.533Z,7.70
2023-01-09T19:59:54.324Z,6.50
2023-01-09T20:02:28.319Z,6.50
2023-01-09T20:05:00.264Z,6.50
2023-01-09T20:07:33.146Z,6.60
2023-01-09T20:10:06.221Z,6.60
2023-01-09T20:12:38.608Z,6.60
2023-01-09T20:15:15.140Z,6.60
2023-01-09T20:17:47.953Z,6.60
2023-01-09T20:20:20.675Z,6.60
2023-01-09T20:25:25.780Z,6.60
2023-01-09T20:27:59.019Z,6.60
2023-01-09T20:33:03.288Z,6.50
2023-01-09T20:35:36.402Z,6.40
2023-01-09T20:38:09.142Z,6.40
2023-01-09T20:43:17.599Z,6.30
2023-01-09T20:45:49.553Z,6.20
2023-01-09T20:50:54.921Z,6.10
2023-01-09T20:53:27.676Z,6.10
2023-01-09T20:56:06.220Z,6.10
2023-01-09T20:58:38.725Z,6.00
2023-01-09T21:01:14.004Z,6.00
2023-01-09T21:03:46.362Z,6.00
2023-01-09T21:06:21.035Z,6.10
2023-01-09T21:11:25.775Z,6.10
2023-01-09T21:13:57.703Z,6.10
2023-01-09T21:16:31.054Z,6.10
2023-01-09T21:19:03.093Z,6.10
2023-01-09T21:21:35.872Z,6.10
2023-01-09T21:26:41.436Z,6.00
2023-01-09T21:29:13.595Z,6.00
2023-01-09T21:31:46.634Z,6.00
2023-01-09T21:34:21.368Z,6.00
2023-01-09T21:36:54.248Z,7.50
2023-01-09T21:42:21.318Z,5.90
2023-01-09T21:50:17.592Z,5.80
2023-01-09T21:55:22.727Z,5.80
2023-01-09T21:58:01.084Z,5.80
2023-01-09T22:00:33.853Z,5.80
2023-01-09T22:05:41.858Z,5.80
2023-01-09T22:10:55.595Z,5.70
2023-01-09T22:16:07.732Z,5.70
2023-01-09T22:18:39.671Z,5.70
2023-01-09T22:21:12.602Z,5.70
2023-01-09T22:23:47.267Z,5.70
2023-01-09T22:26:20.344Z,5.70
2023-01-09T22:28:52.367Z,5.70
2023-01-09T22:31:26.436Z,5.70
2023-01-09T22:34:00.048Z,5.70
2023-01-09T22:36:33.063Z,5.80
2023-01-09T22:39:05.431Z,5.80
2023-01-09T22:41:37.730Z,5.80
2023-01-09T22:44:11.800Z,5.80
2023-01-09T22:46:44.544Z,5.80
2023-01-09T22:49:16.488Z,5.90
2023-01-09T22:51:49.224Z,5.90
2023-01-09T22:54:21.173Z,6.00
2023-01-09T22:56:53.887Z,6.00
2023-01-09T22:59:27.656Z,6.10
2023-01-09T23:01:59.639Z,6.10
2023-01-09T23:04:32.430Z,6.10
2023-01-09T23:07:04.322Z,6.10
2023-01-09T23:12:10.075Z,6.10
2023-01-09T23:17:15.257Z,6.10
2023-01-09T23:19:48.031Z,6.10
2023-01-09T23:24:53.252Z,6.20
2023-01-09T23:29:58.445Z,6.20
2023-01-09T23:35:03.267Z,6.30
2023-01-09T23:37:37.658Z,6.30
2023-01-09T23:40:11.615Z,6.30
2023-01-09T23:43:02.661Z,6.30
2023-01-09T23:45:36.425Z,6.40
2023-01-09T23:48:14.716Z,6.40
2023-01-09T23:50:52.582Z,6.40
2023-01-09T23:53:25.605Z,6.40
2023-01-09T23:55:57.758Z,6.30
2023-01-09T23:58:30.537Z,6.30
